Time;durP1;ratioP1;P1;durP2;ratioP2;P2;SDS_P1;SDS_P2;PMS_P1;PMS_P2;Temp;Humidity;BMP_temperature;BMP_pressure;BME280_temperature;BME280_humidity;BME280_pressure;Samples;Min_cycle;Max_cycle;Signal;HPM_P1;HPM_P2
2024/03/31 00:00:02;;;;;;;32.65;6.80;;;;;;;17.67;43.74;99193.91;5051155;28;20222;-59
2024/03/31 00:02:29;;;;;;;31.95;7.00;;;;;;;17.66;43.62;99184.44;5051043;28;20246;-59
2024/03/31 00:04:55;;;;;;;34.50;6.47;;;;;;;17.65;43.93;99191.41;5050921;28;20218;-60
2024/03/31 00:07:22;;;;;;;31.08;7.05;;;;;;;17.63;43.23;99190.63;5050993;28;20631;-58
2024/03/31 00:09:48;;;;;;;28.42;6.60;;;;;;;17.66;44.13;99195.69;5051235;28;20217;-62
2024/03/31 00:12:15;;;;;;;29.30;6.10;;;;;;;17.68;43.26;99190.41;5050911;28;20210;-63
2024/03/31 00:14:43;;;;;;;30.77;6.07;;;;;;;17.70;43.68;99183.34;5050619;28;20213;-60
2024/03/31 00:17:10;;;;;;;28.27;6.75;;;;;;;17.72;43.40;99187.56;5050686;28;20206;-62
2024/03/31 00:19:36;;;;;;;31.00;5.82;;;;;;;17.75;44.01;99195.22;5050503;28;20246;-62
2024/03/31 00:22:04;;;;;;;30.52;5.43;;;;;;;17.75;43.78;99187.41;5051109;28;20567;-64
2024/03/31 00:24:30;;;;;;;30.40;6.15;;;;;;;17.76;43.53;99185.66;5050499;28;20213;-60
2024/03/31 00:26:58;;;;;;;24.05;6.05;;;;;;;17.73;44.36;99178.78;5050742;28;20567;-61
2024/03/31 00:29:24;;;;;;;28.92;5.63;;;;;;;17.72;43.80;99182.34;5050684;28;20217;-62
2024/03/31 00:31:52;;;;;;;27.17;5.43;;;;;;;17.70;43.67;99180.72;5050812;28;20214;-64
2024/03/31 00:34:22;;;;;;;27.45;6.03;;;;;;;17.68;44.12;99180.00;5050727;28;20566;-62
2024/03/31 00:36:49;;;;;;;32.15;5.78;;;;;;;17.69;44.70;99176.44;5050419;28;20206;-63
2024/03/31 00:39:16;;;;;;;18.45;5.03;;;;;;;17.66;44.86;99176.63;5050691;28;20232;-61
2024/03/31 00:41:43;;;;;;;27.92;5.65;;;;;;;17.65;44.86;99177.53;5049848;28;20217;-61
2024/03/31 00:44:09;;;;;;;26.90;5.95;;;;;;;17.59;45.00;99182.16;5050092;28;20213;-63
2024/03/31 00:46:36;;;;;;;20.15;5.40;;;;;;;17.59;44.46;99174.34;5050167;28;20234;-61
2024/03/31 00:49:04;;;;;;;30.13;5.90;;;;;;;17.57;45.24;99172.75;5050231;28;20268;-67
2024/03/31 00:51:34;;;;;;;22.40;5.55;;;;;;;17.58;44.50;99172.66;5050476;28;20671;-61
2024/03/31 00:54:00;;;;;;;23.27;5.25;;;;;;;17.57;45.73;99171.00;5050572;28;20641;-62
2024/03/31 00:56:27;;;;;;;26.95;5.68;;;;;;;17.58;45.38;99171.81;5049926;28;20217;-61
2024/03/31 00:58:53;;;;;;;23.17;5.57;;;;;;;17.56;44.74;99169.31;5050110;28;20209;-62
2024/03/31 01:01:20;;;;;;;23.45;5.50;;;;;;;17.54;45.37;99171.16;5050175;28;20217;-64
2024/03/31 01:03:46;;;;;;;30.30;5.90;;;;;;;17.52;45.43;99164.34;5049961;28;20216;-61
2024/03/31 01:06:16;;;;;;;24.55;5.38;;;;;;;17.48;45.50;99162.81;5049949;28;20814;-61
2024/03/31 01:08:43;;;;;;;19.20;5.35;;;;;;;17.44;46.16;99159.53;5049959;28;20217;-61
2024/03/31 01:11:10;;;;;;;27.30;5.35;;;;;;;17.38;45.46;99149.47;5049951;28;20241;-60
2024/03/31 01:13:36;;;;;;;21.38;5.60;;;;;;;17.34;45.95;99155.75;5049830;28;20209;-61
2024/03/31 01:16:04;;;;;;;24.60;5.18;;;;;;;17.32;45.67;99155.84;5049924;28;20210;-64
2024/03/31 01:18:30;;;;;;;33.03;5.78;;;;;;;17.31;46.29;99161.13;5049626;28;20224;-61
2024/03/31 01:20:57;;;;;;;23.65;5.38;;;;;;;17.30;46.01;99155.06;5049918;28;20241;-63
2024/03/31 01:23:28;;;;;;;26.38;4.82;;;;;;;17.31;45.81;99161.13;5049653;28;20218;-62
2024/03/31 01:25:59;;;;;;;23.95;5.03;;;;;;;17.27;47.42;99157.84;5049817;28;20681;-61
2024/03/31 01:28:26;;;;;;;25.10;5.88;;;;;;;17.28;47.38;99162.13;5049746;28;20216;-63
2024/03/31 01:30:54;;;;;;;20.98;5.30;;;;;;;17.23;46.94;99158.06;5050167;28;20548;-61
2024/03/31 01:33:20;;;;;;;22.40;5.22;;;;;;;17.21;47.89;99150.38;5050284;28;20623;-60
2024/03/31 01:35:47;;;;;;;20.88;4.60;;;;;;;17.19;46.89;99157.41;5049820;28;20228;-62
2024/03/31 01:38:13;;;;;;;22.15;5.28;;;;;;;17.17;46.71;99146.25;5049903;28;20653;-61
2024/03/31 01:40:40;;;;;;;26.15;5.47;;;;;;;17.19;47.35;99152.19;5049861;28;20256;-63
2024/03/31 01:43:07;;;;;;;22.20;4.75;;;;;;;17.17;47.86;99154.06;5049526;28;20213;-61
2024/03/31 01:45:35;;;;;;;32.15;5.10;;;;;;;17.15;47.72;99155.88;5049795;28;20210;-61
2024/03/31 01:48:01;;;;;;;18.85;4.57;;;;;;;17.13;47.92;99155.13;5049831;28;20576;-61
2024/03/31 01:50:28;;;;;;;21.45;4.68;;;;;;;17.12;47.46;99150.84;5049529;28;20210;-65
2024/03/31 01:52:54;;;;;;;20.05;4.25;;;;;;;17.12;47.93;99153.44;5051372;28;20221;-64
2024/03/31 01:55:21;;;;;;;23.98;4.35;;;;;;;17.10;48.17;99158.72;5053351;28;20257;-64
2024/03/31 01:57:46;;;;;;;21.88;4.88;;;;;;;17.07;48.52;99148.47;5053784;28;20650;-66
2024/03/31 02:00:15;;;;;;;17.10;3.35;;;;;;;17.06;47.35;99148.56;5053363;28;20201;-62
2024/03/31 02:02:41;;;;;;;24.15;5.10;;;;;;;17.03;48.33;99141.75;5053559;28;20205;-61
2024/03/31 02:05:08;;;;;;;18.80;5.07;;;;;;;17.01;48.48;99140.16;5053245;28;20213;-62
2024/03/31 02:07:34;;;;;;;16.80;3.63;;;;;;;17.03;48.90;99151.34;5053135;28;20230;-61
2024/03/31 02:10:01;;;;;;;16.98;3.83;;;;;;;17.02;48.20;99149.66;5053141;28;20271;-61
2024/03/31 02:12:27;;;;;;;21.85;4.55;;;;;;;16.99;48.83;99144.59;5052999;28;20213;-62
2024/03/31 02:14:54;;;;;;;21.50;4.07;;;;;;;16.96;48.55;99137.78;5053032;28;20214;-62
2024/03/31 02:17:21;;;;;;;17.30;3.67;;;;;;;16.97;48.36;99143.84;5053427;28;20216;-61
2024/03/31 02:19:49;;;;;;;19.73;4.22;;;;;;;16.95;48.28;99149.13;5052813;28;20246;-61
2024/03/31 02:22:16;;;;;;;15.95;4.05;;;;;;;16.94;48.22;99141.38;5052987;28;20223;-64
2024/03/31 02:24:43;;;;;;;18.67;4.05;;;;;;;16.94;48.72;99146.59;5053082;28;20668;-62
2024/03/31 02:27:09;;;;;;;21.98;4.35;;;;;;;16.90;48.38;99141.56;5052498;28;20241;-64
2024/03/31 02:29:39;;;;;;;17.75;3.97;;;;;;;16.89;49.08;99139.88;5052970;28;20206;-63
2024/03/31 02:32:18;;;;;;;16.65;3.47;;;;;;;16.87;48.77;99141.72;5052951;28;20661;-58
2024/03/31 02:34:46;;;;;;;19.90;4.32;;;;;;;16.84;48.99;99144.47;5052836;28;20572;-58
2024/03/31 02:37:12;;;;;;;18.75;4.15;;;;;;;16.85;48.38;99140.94;5053025;28;20589;-60
2024/03/31 02:39:39;;;;;;;15.07;4.07;;;;;;;16.86;49.24;99142.66;5052409;28;20220;-61
2024/03/31 02:42:06;;;;;;;18.75;4.15;;;;;;;16.86;49.55;99136.59;5053013;28;20264;-58
2024/03/31 02:44:33;;;;;;;15.52;3.75;;;;;;;16.85;48.90;99138.34;5052734;28;20209;-60
2024/03/31 02:46:59;;;;;;;15.77;3.42;;;;;;;16.85;49.35;99138.34;5052517;28;20236;-59
2024/03/31 02:49:26;;;;;;;18.88;3.33;;;;;;;16.85;49.37;99133.16;5052675;28;20576;-59
2024/03/31 02:51:54;;;;;;;14.98;3.67;;;;;;;16.79;48.80;99124.81;5052330;28;20218;-59
2024/03/31 02:54:20;;;;;;;21.48;4.10;;;;;;;16.81;49.11;99129.03;5052311;28;20213;-59
2024/03/31 02:56:47;;;;;;;10.35;3.00;;;;;;;16.81;49.61;99138.59;5052178;28;20206;-60
2024/03/31 02:59:13;;;;;;;22.10;3.78;;;;;;;16.81;49.21;99136.81;5052535;28;20653;-59
2024/03/31 03:01:40;;;;;;;13.27;2.90;;;;;;;16.78;48.61;99131.78;5052359;28;20206;-59
2024/03/31 03:04:09;;;;;;;19.83;3.72;;;;;;;16.78;49.69;99131.78;5051649;28;20214;-57
2024/03/31 03:06:36;;;;;;;16.08;3.72;;;;;;;16.77;48.68;99130.09;5051841;28;20243;-59
2024/03/31 03:09:03;;;;;;;13.02;3.38;;;;;;;16.75;48.98;99124.13;5051903;28;20218;-59
2024/03/31 03:11:30;;;;;;;13.18;3.42;;;;;;;16.76;49.22;99133.63;5051917;28;20213;-59
2024/03/31 03:13:56;;;;;;;17.20;3.33;;;;;;;16.75;49.49;99120.69;5052241;28;20217;-58
2024/03/31 03:16:24;;;;;;;17.13;3.63;;;;;;;16.72;49.03;99121.69;5052059;28;20198;-68
2024/03/31 03:18:50;;;;;;;17.38;3.63;;;;;;;16.74;50.14;99119.84;5051724;28;20214;-59
2024/03/31 03:21:17;;;;;;;10.95;2.85;;;;;;;16.74;49.09;99122.44;5051869;28;20214;-59
2024/03/31 03:23:44;;;;;;;13.13;3.13;;;;;;;16.74;48.96;99119.84;5051641;28;20218;-60
2024/03/31 03:26:12;;;;;;;15.82;3.13;;;;;;;16.73;50.61;99119.91;5051621;28;20217;-58
2024/03/31 03:28:38;;;;;;;14.75;3.28;;;;;;;16.71;49.40;99117.38;5051649;28;20217;-62
2024/03/31 03:31:06;;;;;;;17.55;3.45;;;;;;;16.70;50.58;99120.06;5051918;28;20252;-61
2024/03/31 03:33:32;;;;;;;15.23;3.20;;;;;;;16.66;50.43;99112.41;5051689;28;20206;-58
2024/03/31 03:36:03;;;;;;;20.67;2.97;;;;;;;16.65;50.51;99104.69;5051337;28;20220;-59
2024/03/31 03:38:30;;;;;;;10.35;3.22;;;;;;;16.64;49.36;99116.00;5051290;28;20216;-59
2024/03/31 03:40:57;;;;;;;14.30;3.03;;;;;;;16.66;50.85;99116.78;5051664;28;20590;-60
2024/03/31 03:43:25;;;;;;;15.48;3.45;;;;;;;16.64;50.57;99108.19;5051562;28;20206;-58
2024/03/31 03:45:52;;;;;;;11.27;3.05;;;;;;;16.62;50.30;99102.25;5051366;28;20213;-58
2024/03/31 03:48:18;;;;;;;10.05;2.67;;;;;;;16.59;49.97;99103.25;5051322;28;20236;-59
2024/03/31 03:50:45;;;;;;;16.05;3.42;;;;;;;16.56;49.45;99106.00;5051310;28;20218;-59
2024/03/31 03:53:11;;;;;;;13.95;3.30;;;;;;;16.56;50.19;99099.97;5051436;28;20672;-60
2024/03/31 03:55:38;;;;;;;11.52;3.03;;;;;;;16.56;50.73;99100.78;5051042;28;20654;-60
2024/03/31 03:58:04;;;;;;;13.85;3.40;;;;;;;16.56;50.73;99097.34;5051408;28;20645;-58
2024/03/31 04:00:32;;;;;;;16.30;3.22;;;;;;;16.52;50.48;99093.22;5050926;28;20229;-59
2024/03/31 04:02:58;;;;;;;19.35;3.97;;;;;;;16.52;50.77;99099.28;5051324;28;20633;-60
2024/03/31 04:05:25;;;;;;;14.88;2.97;;;;;;;16.51;50.31;99096.75;5051145;28;20221;-58
2024/03/31 04:07:51;;;;;;;16.30;2.50;;;;;;;16.51;50.43;99096.75;5050786;28;20595;-62
2024/03/31 04:10:18;;;;;;;11.20;2.90;;;;;;;16.51;51.23;99091.56;5051169;28;20221;-59
2024/03/31 04:12:43;;;;;;;9.75;2.60;;;;;;;16.46;51.09;99098.72;5050796;28;20206;-59
2024/03/31 04:15:10;;;;;;;17.63;3.75;;;;;;;16.46;51.01;99106.53;5050280;28;20593;-59
2024/03/31 04:17:38;;;;;;;9.43;3.65;;;;;;;16.43;51.33;99099.75;5050918;28;20641;-60
2024/03/31 04:20:06;;;;;;;8.02;2.58;;;;;;;16.42;50.25;99103.25;5050596;28;20249;-58
2024/03/31 04:22:33;;;;;;;14.93;3.35;;;;;;;16.41;51.38;99097.22;5051007;28;20561;-60
2024/03/31 04:25:00;;;;;;;12.95;3.00;;;;;;;16.44;50.89;99098.81;5050831;28;20665;-59
2024/03/31 04:27:26;;;;;;;15.45;2.92;;;;;;;16.44;51.29;99096.22;5050517;28;20620;-59
2024/03/31 04:29:53;;;;;;;9.48;3.20;;;;;;;16.46;50.65;99098.72;5050595;28;20206;-59
2024/03/31 04:32:19;;;;;;;12.55;3.60;;;;;;;16.47;51.19;99103.03;5050843;28;20210;-63
2024/03/31 04:34:50;;;;;;;11.50;2.80;;;;;;;16.42;51.64;99092.84;5050723;28;20228;-59
2024/03/31 04:37:16;;;;;;;17.10;3.35;;;;;;;16.46;51.23;99089.19;5050784;28;20206;-58
2024/03/31 04:39:43;;;;;;;13.70;3.58;;;;;;;16.47;51.63;99085.69;5050356;28;20209;-60
2024/03/31 04:42:09;;;;;;;10.45;2.88;;;;;;;16.50;50.25;99087.28;5050555;28;20233;-60
2024/03/31 04:44:36;;;;;;;10.27;3.05;;;;;;;16.53;51.00;99089.72;5050215;28;20292;-62
2024/03/31 04:47:02;;;;;;;12.48;3.10;;;;;;;16.55;50.38;99080.09;5050188;28;20234;-65
2024/03/31 04:49:29;;;;;;;10.57;2.45;;;;;;;16.59;50.25;99090.25;5050477;28;20218;-60
2024/03/31 04:51:56;;;;;;;11.27;2.88;;;;;;;16.60;50.75;99085.88;5050494;28;20271;-66
2024/03/31 04:54:23;;;;;;;14.75;3.42;;;;;;;16.63;50.03;99083.13;5050475;28;20209;-63
2024/03/31 04:56:49;;;;;;;11.20;3.33;;;;;;;16.69;51.23;99087.19;5050730;28;20611;-64
2024/03/31 04:59:16;;;;;;;9.70;2.67;;;;;;;16.74;49.63;99088.63;5050075;28;20289;-63
2024/03/31 05:01:42;;;;;;;11.93;2.50;;;;;;;16.77;50.52;99085.88;5050346;28;20289;-64
2024/03/31 05:04:10;;;;;;;11.65;3.28;;;;;;;16.79;50.80;99081.44;5050456;28;20659;-64
2024/03/31 05:06:36;;;;;;;9.02;2.80;;;;;;;16.84;49.58;99084.63;5049988;28;20241;-67
2024/03/31 05:09:04;;;;;;;11.07;2.72;;;;;;;16.87;49.75;99078.44;5050250;28;20210;-65
2024/03/31 05:11:30;;;;;;;11.02;2.88;;;;;;;16.90;49.70;99081.72;5049900;28;20214;-63
2024/03/31 05:13:57;;;;;;;10.25;2.60;;;;;;;16.98;49.44;99080.47;5050254;28;20668;-63
2024/03/31 05:16:23;;;;;;;9.68;2.90;;;;;;;17.11;49.90;99081.47;5050196;28;20217;-66
2024/03/31 05:18:51;;;;;;;10.77;3.10;;;;;;;17.15;48.84;99083.00;5050103;28;20720;-66
2024/03/31 05:21:17;;;;;;;15.50;3.58;;;;;;;17.19;49.55;99088.88;5049988;28;20244;-65
2024/03/31 05:23:46;;;;;;;8.77;3.15;;;;;;;17.25;48.58;99088.56;5049738;28;20209;-65
2024/03/31 05:26:13;;;;;;;8.23;2.42;;;;;;;17.33;49.04;99089.81;5051367;28;20263;-63
2024/03/31 05:28:41;;;;;;;16.73;2.85;;;;;;;17.37;49.00;99083.50;5056618;28;20421;-65
2024/03/31 05:31:07;;;;;;;19.55;3.03;;;;;;;17.40;48.93;99079.91;5056150;28;20213;-64
2024/03/31 05:33:35;;;;;;;11.10;2.70;;;;;;;17.45;48.69;99084.84;5056645;28;20202;-63
2024/03/31 05:36:01;;;;;;;12.65;2.80;;;;;;;17.51;48.46;99084.53;5056371;28;20220;-65
2024/03/31 05:38:28;;;;;;;11.35;3.38;;;;;;;17.56;48.09;99090.31;5056183;28;20206;-65
2024/03/31 05:40:54;;;;;;;12.90;2.80;;;;;;;17.63;48.15;99083.81;5056124;28;20209;-66
2024/03/31 05:43:22;;;;;;;11.45;2.78;;;;;;;17.74;48.46;99084.06;5056260;28;20275;-66
2024/03/31 05:45:49;;;;;;;12.38;2.70;;;;;;;17.79;47.80;99076.88;5056209;28;20224;-64
2024/03/31 05:48:16;;;;;;;13.15;3.03;;;;;;;17.83;47.56;99081.00;5056030;28;20234;-64
2024/03/31 05:50:42;;;;;;;11.10;2.70;;;;;;;17.82;47.28;99073.25;5056151;28;20205;-65
2024/03/31 05:53:08;;;;;;;12.18;2.40;;;;;;;17.80;47.52;99070.72;5056138;28;20205;-64
2024/03/31 05:55:34;;;;;;;12.15;2.67;;;;;;;17.81;47.62;99068.97;5055968;28;20210;-63
2024/03/31 05:58:01;;;;;;;9.73;2.78;;;;;;;17.80;47.62;99060.31;5056152;28;20271;-63
2024/03/31 06:00:33;;;;;;;12.02;3.20;;;;;;;17.88;47.67;99059.88;5056403;28;20225;-60
2024/03/31 06:02:59;;;;;;;11.65;2.72;;;;;;;17.95;47.16;99073.41;5055966;28;20209;-60
2024/03/31 06:05:26;;;;;;;9.48;2.70;;;;;;;18.08;46.94;99064.78;5056113;28;20562;-62
2024/03/31 06:07:52;;;;;;;13.85;3.20;;;;;;;18.25;46.50;99074.22;5055916;28;20229;-62
2024/03/31 06:10:19;;;;;;;8.77;2.88;;;;;;;18.40;45.86;99063.81;5056219;28;20210;-62
2024/03/31 06:12:45;;;;;;;9.43;2.72;;;;;;;18.60;46.05;99068.69;5055958;28;20208;-63
2024/03/31 06:15:12;;;;;;;8.13;2.22;;;;;;;18.70;45.43;99061.13;5056304;28;20290;-60
2024/03/31 06:17:39;;;;;;;7.28;2.45;;;;;;;18.72;45.18;99060.16;5056332;28;20731;-62
2024/03/31 06:20:08;;;;;;;9.80;2.50;;;;;;;18.67;44.60;99071.75;5055903;28;20275;-62
2024/03/31 06:22:38;;;;;;;9.90;2.72;;;;;;;18.64;44.86;99067.56;5056133;28;20565;-62
2024/03/31 06:25:05;;;;;;;6.97;2.33;;;;;;;18.53;45.09;99063.00;5056184;28;20645;-62
2024/03/31 06:27:31;;;;;;;11.00;2.70;;;;;;;18.51;45.53;99066.63;5055781;28;20229;-61
2024/03/31 06:29:58;;;;;;;7.35;2.20;;;;;;;18.44;45.63;99073.13;5056085;28;20255;-61
2024/03/31 06:32:24;;;;;;;10.07;2.30;;;;;;;18.39;45.40;99068.19;5056342;28;20619;-61
2024/03/31 06:34:55;;;;;;;8.55;2.55;;;;;;;18.34;45.95;99076.28;5055818;28;20218;-62
2024/03/31 06:37:24;;;;;;;6.60;2.60;;;;;;;18.31;45.84;99070.41;5055241;28;20213;-63
2024/03/31 06:39:52;;;;;;;8.77;2.33;;;;;;;18.29;46.29;99067.06;5052239;28;20222;-62
2024/03/31 06:42:18;;;;;;;8.43;2.95;;;;;;;18.25;46.63;99070.78;5052651;28;20217;-61
2024/03/31 06:44:45;;;;;;;7.53;2.42;;;;;;;18.21;46.44;99075.31;5052608;28;20218;-62
2024/03/31 06:47:10;;;;;;;9.88;3.20;;;;;;;18.20;46.60;99068.44;5052388;28;20240;-61
2024/03/31 06:49:38;;;;;;;8.82;2.58;;;;;;;18.26;46.35;99064.63;5053027;28;20289;-61
2024/03/31 06:52:06;;;;;;;11.98;2.65;;;;;;;18.33;46.22;99058.94;5052374;28;20210;-60
2024/03/31 06:54:33;;;;;;;8.75;2.67;;;;;;;18.43;46.21;99058.41;5052322;28;20210;-64
2024/03/31 06:56:58;;;;;;;6.93;2.25;;;;;;;18.58;45.98;99057.50;5052213;28;20210;-62
2024/03/31 06:59:25;;;;;;;8.40;2.80;;;;;;;18.87;46.01;99052.31;5052259;28;20213;-61
2024/03/31 07:01:51;;;;;;;6.22;1.77;;;;;;;19.10;44.75;99058.72;5052500;28;20661;-63
2024/03/31 07:04:18;;;;;;;11.05;2.35;;;;;;;19.29;44.94;99054.00;5052266;28;20209;-63
2024/03/31 07:06:45;;;;;;;7.47;2.45;;;;;;;19.36;43.89;99050.06;5052304;28;20214;-62
2024/03/31 07:09:13;;;;;;;6.45;2.17;;;;;;;19.46;43.62;99050.34;5052069;28;20214;-64
2024/03/31 07:11:39;;;;;;;8.52;2.28;;;;;;;19.79;44.04;99047.34;5052109;28;20210;-61
2024/03/31 07:14:06;;;;;;;8.65;2.25;;;;;;;20.72;42.04;99054.16;5052233;28;20275;-59
2024/03/31 07:16:32;;;;;;;6.00;2.30;;;;;;;21.89;39.49;99035.34;5051990;28;20221;-61
2024/03/31 07:18:59;;;;;;;5.50;1.92;;;;;;;22.49;37.41;99039.56;5052274;28;20672;-61
2024/03/31 07:21:26;;;;;;;6.80;2.45;;;;;;;22.40;37.34;99037.66;5051945;28;20217;-60
2024/03/31 07:23:52;;;;;;;8.40;2.63;;;;;;;22.67;37.76;99038.13;5052235;28;20206;-61
2024/03/31 07:26:22;;;;;;;8.93;2.50;;;;;;;23.48;36.35;99025.63;5051917;28;20241;-60
2024/03/31 07:28:47;;;;;;;8.82;2.28;;;;;;;24.28;33.93;99021.69;5051740;28;20588;-59
2024/03/31 07:31:15;;;;;;;12.68;4.38;;;;;;;24.87;33.58;99015.72;5051964;28;20210;-60
2024/03/31 07:33:41;;;;;;;8.43;2.63;;;;;;;25.79;32.10;99010.22;5052026;28;20206;-61
2024/03/31 07:36:08;;;;;;;8.27;2.50;;;;;;;26.59;29.74;99000.22;5051633;28;20317;-60
2024/03/31 07:38:34;;;;;;;5.88;2.75;;;;;;;27.37;28.60;99004.09;5051747;28;20202;-60
2024/03/31 07:41:01;;;;;;;13.43;2.25;;;;;;;27.79;28.30;99005.31;5051527;28;20243;-59
2024/03/31 07:43:29;;;;;;;8.10;2.47;;;;;;;28.07;27.64;99009.50;5051431;28;20218;-59
2024/03/31 07:45:57;;;;;;;6.75;2.40;;;;;;;28.70;27.03;99008.41;5051564;28;20668;-64
2024/03/31 07:48:23;;;;;;;6.45;2.15;;;;;;;29.21;26.07;99001.31;5051263;28;20731;-60
2024/03/31 07:50:50;;;;;;;5.53;2.40;;;;;;;29.63;25.06;98999.56;5050379;28;20210;-63
2024/03/31 07:53:16;;;;;;;7.68;2.20;;;;;;;30.05;24.95;98999.41;5051468;28;20206;-60
2024/03/31 07:55:43;;;;;;;6.60;2.42;;;;;;;30.54;24.09;98994.81;5051163;28;20263;-62
2024/03/31 07:58:09;;;;;;;10.55;2.55;;;;;;;30.70;24.18;98999.22;5051392;28;20210;-61
2024/03/31 08:00:37;;;;;;;4.68;1.75;;;;;;;31.06;24.05;98998.75;5051287;28;20680;-60
2024/03/31 08:03:04;;;;;;;6.18;2.28;;;;;;;31.24;22.87;98996.66;5050878;28;20226;-59
2024/03/31 08:05:31;;;;;;;7.57;2.22;;;;;;;31.29;22.93;98988.97;5050872;28;20255;-60
2024/03/31 08:07:57;;;;;;;7.50;2.03;;;;;;;31.43;23.05;98994.56;5051196;28;20584;-59
2024/03/31 08:10:23;;;;;;;11.20;2.05;;;;;;;31.47;23.10;98985.22;5051114;28;20241;-59
2024/03/31 08:12:50;;;;;;;4.10;1.90;;;;;;;31.42;21.55;98991.09;5050880;28;20210;-61
2024/03/31 08:15:17;;;;;;;6.85;2.33;;;;;;;31.24;22.99;98991.34;5051130;28;20237;-59
2024/03/31 08:17:44;;;;;;;10.20;1.92;;;;;;;30.85;22.82;98985.25;5050754;28;20210;-60
2024/03/31 08:20:11;;;;;;;11.55;1.95;;;;;;;30.60;23.28;98995.97;5050416;28;20240;-61
2024/03/31 08:22:37;;;;;;;8.98;1.90;;;;;;;30.25;22.89;98989.25;5051016;28;20936;-64
2024/03/31 08:25:04;;;;;;;5.85;1.90;;;;;;;29.83;23.23;98991.13;5067482;28;20274;-66
2024/03/31 08:27:30;;;;;;;8.52;2.45;;;;;;;29.24;24.47;98995.69;5050631;28;20232;-63
2024/03/31 08:29:57;;;;;;;7.00;1.92;;;;;;;28.75;25.70;98986.72;5050893;28;20650;-66
2024/03/31 08:32:23;;;;;;;7.15;1.90;;;;;;;28.57;25.37;98981.50;5050415;28;20213;-66
2024/03/31 08:34:52;;;;;;;4.78;2.20;;;;;;;28.28;25.53;98985.31;5050670;28;20206;-65
2024/03/31 08:37:18;;;;;;;8.88;2.50;;;;;;;28.07;26.47;98971.59;5050678;28;20711;-65
2024/03/31 08:39:45;;;;;;;6.30;1.90;;;;;;;27.67;25.53;98975.59;5050738;28;20213;-65
2024/03/31 08:42:20;;;;;;;6.30;1.90;;;;;;;27.27;26.76;98979.50;5050567;28;20213;-64
2024/03/31 08:44:49;;;;;;;6.22;2.30;;;;;;;27.02;27.05;98985.50;5050318;28;20224;-64
2024/03/31 08:47:19;;;;;;;10.43;2.15;;;;;;;26.86;27.41;98983.50;5050183;28;20260;-64
2024/03/31 08:49:46;;;;;;;10.20;2.13;;;;;;;26.64;27.49;98968.88;5050441;28;20202;-64
2024/03/31 08:52:16;;;;;;;9.77;1.63;;;;;;;26.30;28.44;98968.59;5050571;28;20222;-65
2024/03/31 08:54:45;;;;;;;11.63;3.22;;;;;;;26.11;28.93;98972.94;5050772;28;20228;-65
2024/03/31 08:57:11;;;;;;;7.93;2.13;;;;;;;25.83;29.47;98971.19;5050499;28;20554;-64
2024/03/31 08:59:38;;;;;;;5.00;1.98;;;;;;;25.53;29.63;98971.19;5050356;28;20228;-67
2024/03/31 09:02:05;;;;;;;7.22;2.22;;;;;;;25.43;30.21;98970.34;5050303;28;20719;-65
2024/03/31 09:04:32;;;;;;;6.00;2.10;;;;;;;25.27;30.30;98968.25;5050211;28;20217;-64
2024/03/31 09:07:00;;;;;;;6.53;1.73;;;;;;;24.92;30.71;98971.34;5050392;28;20688;-65
2024/03/31 09:09:31;;;;;;;4.70;1.85;;;;;;;24.63;31.50;98967.81;5050247;28;20253;-64
2024/03/31 09:11:57;;;;;;;4.45;2.13;;;;;;;24.57;31.74;98974.44;5049883;28;20218;-64
2024/03/31 09:14:24;;;;;;;6.00;2.05;;;;;;;24.66;32.00;98978.06;5049826;28;20249;-65
2024/03/31 09:16:50;;;;;;;7.45;2.20;;;;;;;24.79;32.32;98965.50;5049904;28;20213;-66
2024/03/31 09:19:17;;;;;;;9.23;2.33;;;;;;;24.81;32.51;98963.56;5049679;28;20244;-65
2024/03/31 09:21:47;;;;;;;4.30;2.03;;;;;;;24.87;32.10;98956.94;5050030;28;20573;-65
2024/03/31 09:24:14;;;;;;;4.90;1.80;;;;;;;24.95;31.53;98949.19;5049922;28;20205;-64
2024/03/31 09:26:42;;;;;;;5.57;1.75;;;;;;;25.19;31.53;98948.84;5049747;28;20202;-65
2024/03/31 09:29:10;;;;;;;7.25;2.10;;;;;;;25.36;31.06;98949.94;5049658;28;20233;-66
2024/03/31 09:31:36;;;;;;;4.32;2.08;;;;;;;25.39;30.38;98936.47;5050009;28;20613;-62
2024/03/31 09:34:03;;;;;;;7.75;1.98;;;;;;;25.44;30.62;98937.75;5049706;28;20213;-61
2024/03/31 09:36:29;;;;;;;6.72;1.77;;;;;;;25.53;30.36;98931.63;5049826;28;20220;-60
2024/03/31 09:38:56;;;;;;;6.72;1.90;;;;;;;25.51;30.43;98933.53;5049637;28;20653;-60
2024/03/31 09:41:22;;;;;;;7.32;1.73;;;;;;;25.44;30.04;98934.25;5049897;28;20206;-63
2024/03/31 09:43:51;;;;;;;6.60;1.73;;;;;;;25.53;30.30;98942.16;5049432;28;20209;-58
2024/03/31 09:46:17;;;;;;;9.48;2.40;;;;;;;25.70;30.28;98937.13;5050013;28;20620;-60
2024/03/31 09:48:49;;;;;;;8.00;1.70;;;;;;;25.85;30.49;98932.28;5049420;28;20275;-60
2024/03/31 09:51:19;;;;;;;7.78;1.92;;;;;;;26.02;30.66;98929.72;5049601;28;20218;-60
2024/03/31 09:53:55;;;;;;;8.40;2.33;;;;;;;26.21;29.66;98930.66;5050034;28;20748;-60
2024/03/31 09:56:29;;;;;;;6.70;1.98;;;;;;;26.29;29.50;98917.56;5049564;28;20255;-60
2024/03/31 09:59:03;;;;;;;7.57;2.20;;;;;;;26.21;29.36;98926.19;5049523;28;20671;-59
2024/03/31 10:01:31;;;;;;;7.32;2.20;;;;;;;26.10;28.64;98912.34;5049702;28;20672;-61
2024/03/31 10:04:06;;;;;;;3.75;1.77;;;;;;;26.14;28.44;98919.84;5049399;28;20210;-60
2024/03/31 10:06:32;;;;;;;4.68;1.98;;;;;;;26.25;28.05;98910.91;5049371;28;20221;-60
2024/03/31 10:09:00;;;;;;;6.45;2.00;;;;;;;26.38;28.47;98907.94;5049564;28;20271;-59
2024/03/31 10:11:29;;;;;;;6.43;1.88;;;;;;;26.39;26.99;98899.84;5049570;28;20210;-59
2024/03/31 10:13:59;;;;;;;7.70;2.15;;;;;;;26.34;26.79;98894.19;5050930;28;20271;-61
2024/03/31 10:16:26;;;;;;;6.88;2.13;;;;;;;26.35;25.45;98889.72;5053044;28;20210;-59
2024/03/31 10:18:57;;;;;;;10.57;2.42;;;;;;;26.40;25.17;98892.75;5052802;28;20214;-61
2024/03/31 10:21:25;;;;;;;12.27;2.03;;;;;;;26.39;25.09;98894.56;5052958;28;20206;-59
2024/03/31 10:23:53;;;;;;;8.38;2.33;;;;;;;26.35;24.08;98898.47;5053212;28;20637;-60
2024/03/31 10:26:21;;;;;;;13.93;2.03;;;;;;;26.18;24.10;98888.69;5053053;28;20657;-62
2024/03/31 10:28:49;;;;;;;8.90;1.73;;;;;;;26.23;24.77;98889.09;5052751;28;20229;-59
2024/03/31 10:31:16;;;;;;;8.07;1.80;;;;;;;26.50;24.60;98889.13;5052726;28;20213;-59
2024/03/31 10:33:43;;;;;;;8.68;1.92;;;;;;;26.69;24.18;98885.53;5052616;28;20307;-59
2024/03/31 10:36:11;;;;;;;4.68;1.80;;;;;;;26.71;23.78;98882.75;5052760;28;20210;-61
2024/03/31 10:38:43;;;;;;;10.15;2.20;;;;;;;26.63;24.20;98887.97;5052638;28;20206;-59
2024/03/31 10:41:10;;;;;;;9.75;2.10;;;;;;;26.52;24.02;98889.00;5053026;28;20214;-60
2024/03/31 10:43:37;;;;;;;6.22;2.33;;;;;;;26.36;24.67;98886.94;5052495;28;20213;-62
2024/03/31 10:46:04;;;;;;;11.90;2.30;;;;;;;26.39;24.58;98886.66;5052648;28;20225;-62
2024/03/31 10:48:34;;;;;;;8.88;2.28;;;;;;;26.45;25.25;98880.78;5052638;28;20250;-62
2024/03/31 10:51:08;;;;;;;11.13;2.22;;;;;;;26.42;25.02;98874.97;5052446;28;20206;-62
2024/03/31 10:53:35;;;;;;;8.50;2.25;;;;;;;26.48;25.05;98890.25;5052642;28;20216;-62
2024/03/31 10:56:04;;;;;;;6.55;1.90;;;;;;;26.41;25.17;98873.31;5052586;28;20209;-63
2024/03/31 10:58:32;;;;;;;4.90;1.83;;;;;;;26.38;25.67;98869.16;5052338;28;20202;-62
2024/03/31 11:01:01;;;;;;;10.50;2.47;;;;;;;26.38;25.01;98874.44;5052647;28;20209;-62
2024/03/31 11:03:30;;;;;;;6.07;1.77;;;;;;;26.30;25.48;98871.69;5052181;28;20210;-62
2024/03/31 11:05:57;;;;;;;7.47;2.15;;;;;;;26.18;25.02;98875.47;5052497;28;20202;-60
2024/03/31 11:08:25;;;;;;;7.90;2.30;;;;;;;26.27;25.55;98864.06;5052084;28;20221;-62
2024/03/31 11:10:52;;;;;;;7.32;2.40;;;;;;;26.54;25.54;98851.84;5052045;28;20214;-62
2024/03/31 11:13:19;;;;;;;9.77;2.40;;;;;;;26.68;25.40;98856.63;5052017;28;20213;-63
2024/03/31 11:15:45;;;;;;;8.95;2.72;;;;;;;26.59;24.90;98839.88;5051796;28;20209;-64
2024/03/31 11:18:12;;;;;;;12.20;2.45;;;;;;;26.43;25.04;98845.75;5052050;28;20645;-63
2024/03/31 11:20:42;;;;;;;9.60;2.08;;;;;;;26.27;25.78;98837.66;5051632;28;20233;-61
2024/03/31 11:23:13;;;;;;;10.48;2.22;;;;;;;26.21;25.64;98841.69;5051654;28;20219;-62
2024/03/31 11:25:40;;;;;;;14.40;2.88;;;;;;;26.24;26.12;98838.75;5051410;28;20201;-62
2024/03/31 11:28:08;;;;;;;9.27;2.63;;;;;;;26.30;26.00;98834.72;5051905;28;20229;-63